Burr, NE (68324)

11:47 PM CST on January 31, 2015 (GMT -0600)
Kosiba Home | Change Station
CLOSE
Current Station
Personal Weather Station
Location: Syracuse, NE
Elevation: 1119 ft
Nearby Weather Stations
Active Advisory: Winter Storm Warning

Elev 1119 ft 40.63 °N, 96.22 °W | Updated 10 minutes ago

Snow
Snow
31.6 °F
Feels Like 32 °F
N
0.0
Wind Variable Wind from ESE

Today
High -- | Low -- °F
--% Chance of Precip.
Yesterday
High -- | Low -- °F
Precip. -- in
7:35 AM 5:41 PM
Waxing Gibbous, 93% visible
Pressure 29.84 in
Visibility 1.8 miles
Clouds Overcast 200 ft
Windchill 32 °F
Dew Point 31 °F
Humidity 98%
Rainfall 0.38 in
Snow Depth Not available.
UV 0 out of 12
Pollen .10 out of 12
Air Quality Not available.
Flu Activity Not available.
METAR KAFK 010535Z AUTO 15006KT 1 3/4SM -SN OVC002 00/00 A2984 RMK AO2 T00010001

More Conditions Fewer Conditions

Pressure 29.84 in
Visibility 1.8 miles
Clouds Overcast 200 ft
Windchill 32 °F
Dew Point 31 °F
Humidity 98%
Rainfall 0.38 in
Snow Depth Not available.
UV 0 out of 12
Pollen .10 out of 12
Air Quality Not available.
Flu Activity Not available.
METAR KAFK 010535Z AUTO 15006KT 1 3/4SM -SN OVC002 00/00 A2984 RMK AO2 T00010001

More Conditions Fewer Conditions

10-Day Weather Forecast

Almanac

Astronomy

Jan. 31, 2015 Rise Set
Actual Time
Civil Twilight
Nautical Twilight
Astronomical Twilight
Moon
Length of Visible Light
Length of Day
Tomorrow will be .
, % of the Moon is Illuminated

Today's Extremes

State Highs State Lows

Community

WunderPhotos

Upload Photos

1,792,316 photos uploaded!

WunderBlogs® & News

Nearby

Air Quality

  Air Quality AQ Index Pollutant
Not available.

Snow Depth

Station Depth Elevation

Earthquake Activity

City Distance Mag. Time & Date
Minimum magnitude displayed is 2.5.

Coastal Water Temperatures

Place Temperature

Nearby Weather Stations